sensor_id;sensor_type;location;lat;lon;timestamp;pressure;altitude;pressure_sealevel;temperature;humidity
64862;BME280;62652;42.274;-71.436;2024-03-17T00:00:01;99980.0;;;10.61111111111111;100.0
64862;BME280;62652;42.274;-71.436;2024-03-17T00:01:01;99980.0;;;10.61111111111111;100.0
64862;BME280;62652;42.274;-71.436;2024-03-17T00:02:00;99970.0;;;10.722222222222221;100.0
64862;BME280;62652;42.274;-71.436;2024-03-17T00:03:00;99970.0;;;10.61111111111111;100.0
64862;BME280;62652;42.274;-71.436;2024-03-17T00:04:00;99980.0;;;10.61111111111111;100.0
64862;BME280;62652;42.274;-71.436;2024-03-17T00:05:00;99980.0;;;10.388888888888891;100.0
64862;BME280;62652;42.274;-71.436;2024-03-17T00:06:01;99980.0;;;10.5;100.0
64862;BME280;62652;42.274;-71.436;2024-03-17T00:07:01;99980.0;;;10.5;100.0
64862;BME280;62652;42.274;-71.436;2024-03-17T00:08:00;99980.0;;;10.388888888888891;100.0
64862;BME280;62652;42.274;-71.436;2024-03-17T00:09:01;99980.0;;;10.388888888888891;100.0
64862;BME280;62652;42.274;-71.436;2024-03-17T00:10:00;99980.0;;;10.61111111111111;100.0
64862;BME280;62652;42.274;-71.436;2024-03-17T00:11:00;99990.0;;;10.388888888888891;100.0
64862;BME280;62652;42.274;-71.436;2024-03-17T00:12:00;99990.0;;;10.388888888888891;100.0
64862;BME280;62652;42.274;-71.436;2024-03-17T00:13:00;99990.0;;;10.388888888888891;100.0
64862;BME280;62652;42.274;-71.436;2024-03-17T00:14:01;99990.0;;;10.388888888888891;100.0
64862;BME280;62652;42.274;-71.436;2024-03-17T00:15:00;99990.0;;;10.5;100.0
64862;BME280;62652;42.274;-71.436;2024-03-17T00:16:00;99980.0;;;10.277777777777779;100.0
64862;BME280;62652;42.274;-71.436;2024-03-17T00:17:00;99990.0;;;10.277777777777779;100.0
64862;BME280;62652;42.274;-71.436;2024-03-17T00:18:00;99990.0;;;10.388888888888891;100.0
64862;BME280;62652;42.274;-71.436;2024-03-17T00:19:00;99990.0;;;10.277777777777779;100.0
64862;BME280;62652;42.274;-71.436;2024-03-17T00:20:00;99990.0;;;10.277777777777779;100.0
64862;BME280;62652;42.274;-71.436;2024-03-17T00:21:02;99990.0;;;10.277777777777779;100.0
64862;BME280;62652;42.274;-71.436;2024-03-17T00:22:00;100000.0;;;10.222222222222221;100.0
64862;BME280;62652;42.274;-71.436;2024-03-17T00:23:00;100000.0;;;10.111111111111112;100.0
64862;BME280;62652;42.274;-71.436;2024-03-17T00:24:00;99990.0;;;10.222222222222221;100.0
64862;BME280;62652;42.274;-71.436;2024-03-17T00:25:01;99990.0;;;10.111111111111112;100.0
64862;BME280;62652;42.274;-71.436;2024-03-17T00:26:00;99990.0;;;10.111111111111112;100.0
64862;BME280;62652;42.274;-71.436;2024-03-17T00:27:01;99990.0;;;10.111111111111112;100.0
64862;BME280;62652;42.274;-71.436;2024-03-17T00:28:00;99990.0;;;10.0;100.0
64862;BME280;62652;42.274;-71.436;2024-03-17T00:29:00;99990.0;;;10.111111111111112;100.0
64862;BME280;62652;42.274;-71.436;2024-03-17T00:30:00;99990.0;;;10.0;100.0
64862;BME280;62652;42.274;-71.436;2024-03-17T00:31:03;99990.0;;;10.0;100.0
64862;BME280;62652;42.274;-71.436;2024-03-17T00:32:00;100000.0;;;9.888888888888888;100.0
64862;BME280;62652;42.274;-71.436;2024-03-17T00:33:00;99990.0;;;10.0;100.0
64862;BME280;62652;42.274;-71.436;2024-03-17T00:34:00;100000.0;;;10.0;100.0
64862;BME280;62652;42.274;-71.436;2024-03-17T00:35:00;99990.0;;;10.0;100.0
64862;BME280;62652;42.274;-71.436;2024-03-17T00:36:00;99990.0;;;9.888888888888888;100.0
64862;BME280;62652;42.274;-71.436;2024-03-17T00:37:00;99990.0;;;9.888888888888888;100.0
64862;BME280;62652;42.274;-71.436;2024-03-17T00:38:00;99990.0;;;9.888888888888888;100.0
64862;BME280;62652;42.274;-71.436;2024-03-17T00:39:00;99990.0;;;10.0;100.0
64862;BME280;62652;42.274;-71.436;2024-03-17T00:40:01;99990.0;;;9.888888888888888;100.0
64862;BME280;62652;42.274;-71.436;2024-03-17T00:41:02;99990.0;;;9.888888888888888;100.0
64862;BME280;62652;42.274;-71.436;2024-03-17T00:42:00;99990.0;;;9.777777777777779;100.0
64862;BME280;62652;42.274;-71.436;2024-03-17T00:43:00;99990.0;;;9.777777777777779;100.0
64862;BME280;62652;42.274;-71.436;2024-03-17T00:44:00;99990.0;;;9.777777777777779;100.0
64862;BME280;62652;42.274;-71.436;2024-03-17T00:45:00;99990.0;;;9.777777777777779;100.0
64862;BME280;62652;42.274;-71.436;2024-03-17T00:46:00;99990.0;;;9.777777777777779;100.0
64862;BME280;62652;42.274;-71.436;2024-03-17T00:47:00;99990.0;;;9.722222222222221;100.0
64862;BME280;62652;42.274;-71.436;2024-03-17T00:48:00;99990.0;;;9.722222222222221;100.0
64862;BME280;62652;42.274;-71.436;2024-03-17T00:49:00;99990.0;;;9.611111111111109;100.0
64862;BME280;62652;42.274;-71.436;2024-03-17T00:50:00;99990.0;;;9.611111111111109;100.0
64862;BME280;62652;42.274;-71.436;2024-03-17T00:51:00;99980.0;;;9.611111111111109;100.0
64862;BME280;62652;42.274;-71.436;2024-03-17T00:52:00;99980.0;;;9.611111111111109;100.0
64862;BME280;62652;42.274;-71.436;2024-03-17T00:53:01;99980.0;;;9.722222222222221;100.0
64862;BME280;62652;42.274;-71.436;2024-03-17T00:54:00;99980.0;;;9.722222222222221;100.0
64862;BME280;62652;42.274;-71.436;2024-03-17T00:55:00;99980.0;;;9.722222222222221;100.0
64862;BME280;62652;42.274;-71.436;2024-03-17T00:56:00;99980.0;;;9.722222222222221;100.0
64862;BME280;62652;42.274;-71.436;2024-03-17T00:57:00;99980.0;;;9.611111111111109;100.0
64862;BME280;62652;42.274;-71.436;2024-03-17T00:58:00;99990.0;;;9.722222222222221;100.0
64862;BME280;62652;42.274;-71.436;2024-03-17T00:59:00;99990.0;;;9.611111111111109;100.0
64862;BME280;62652;42.274;-71.436;2024-03-17T01:00:00;99980.0;;;9.722222222222221;100.0
64862;BME280;62652;42.274;-71.436;2024-03-17T01:01:00;99990.0;;;9.611111111111109;100.0
64862;BME280;62652;42.274;-71.436;2024-03-17T01:02:00;99980.0;;;9.611111111111109;100.0
64862;BME280;62652;42.274;-71.436;2024-03-17T01:03:00;99990.0;;;9.611111111111109;100.0
64862;BME280;62652;42.274;-71.436;2024-03-17T01:04:00;100000.0;;;9.611111111111109;100.0
64862;BME280;62652;42.274;-71.436;2024-03-17T01:05:00;100000.0;;;9.5;100.0
64862;BME280;62652;42.274;-71.436;2024-03-17T01:06:03;100000.0;;;9.38888888888889;100.0
64862;BME280;62652;42.274;-71.436;2024-03-17T01:07:00;99990.0;;;9.38888888888889;100.0
64862;BME280;62652;42.274;-71.436;2024-03-17T01:08:00;99990.0;;;9.38888888888889;100.0
64862;BME280;62652;42.274;-71.436;2024-03-17T01:09:00;100000.0;;;9.277777777777779;100.0
64862;BME280;62652;42.274;-71.436;2024-03-17T01:10:00;100000.0;;;9.277777777777779;100.0
64862;BME280;62652;42.274;-71.436;2024-03-17T01:11:00;99990.0;;;9.277777777777779;100.0
64862;BME280;62652;42.274;-71.436;2024-03-17T01:12:00;99990.0;;;9.277777777777779;100.0
64862;BME280;62652;42.274;-71.436;2024-03-17T01:13:00;99990.0;;;9.277777777777779;100.0
64862;BME280;62652;42.274;-71.436;2024-03-17T01:14:00;100000.0;;;9.38888888888889;100.0
64862;BME280;62652;42.274;-71.436;2024-03-17T01:15:04;100000.0;;;9.277777777777779;100.0
64862;BME280;62652;42.274;-71.436;2024-03-17T01:16:00;100000.0;;;9.277777777777779;100.0
64862;BME280;62652;42.274;-71.436;2024-03-17T01:17:01;100000.0;;;9.38888888888889;100.0
64862;BME280;62652;42.274;-71.436;2024-03-17T01:18:00;100000.0;;;9.38888888888889;100.0
64862;BME280;62652;42.274;-71.436;2024-03-17T01:19:00;100000.0;;;9.277777777777779;100.0
64862;BME280;62652;42.274;-71.436;2024-03-17T01:20:00;100000.0;;;9.38888888888889;100.0
64862;BME280;62652;42.274;-71.436;2024-03-17T01:21:00;100000.0;;;9.277777777777779;100.0
64862;BME280;62652;42.274;-71.436;2024-03-17T01:22:01;100010.0;;;9.277777777777779;100.0
64862;BME280;62652;42.274;-71.436;2024-03-17T01:23:00;100010.0;;;9.277777777777779;100.0
64862;BME280;62652;42.274;-71.436;2024-03-17T01:24:00;100000.0;;;9.222222222222221;100.0
64862;BME280;62652;42.274;-71.436;2024-03-17T01:25:00;100000.0;;;9.222222222222221;100.0
64862;BME280;62652;42.274;-71.436;2024-03-17T01:26:01;100000.0;;;9.11111111111111;100.0
64862;BME280;62652;42.274;-71.436;2024-03-17T01:27:01;100010.0;;;9.11111111111111;100.0
64862;BME280;62652;42.274;-71.436;2024-03-17T01:28:00;100000.0;;;9.11111111111111;100.0
64862;BME280;62652;42.274;-71.436;2024-03-17T01:29:00;100010.0;;;9.11111111111111;100.0
64862;BME280;62652;42.274;-71.436;2024-03-17T01:30:01;100000.0;;;9.11111111111111;100.0
64862;BME280;62652;42.274;-71.436;2024-03-17T01:31:00;100010.0;;;9.000000000000002;100.0
64862;BME280;62652;42.274;-71.436;2024-03-17T01:32:00;100000.0;;;9.000000000000002;100.0
64862;BME280;62652;42.274;-71.436;2024-03-17T01:33:01;100010.0;;;9.000000000000002;100.0
64862;BME280;62652;42.274;-71.436;2024-03-17T01:34:00;100000.0;;;8.88888888888889;100.0
64862;BME280;62652;42.274;-71.436;2024-03-17T01:35:00;100000.0;;;9.000000000000002;100.0
64862;BME280;62652;42.274;-71.436;2024-03-17T01:36:00;100000.0;;;9.000000000000002;100.0
64862;BME280;62652;42.274;-71.436;2024-03-17T01:37:00;100000.0;;;9.000000000000002;100.0
64862;BME280;62652;42.274;-71.436;2024-03-17T01:38:00;100000.0;;;8.88888888888889;100.0
64862;BME280;62652;42.274;-71.436;2024-03-17T01:39:00;100000.0;;;8.777777777777777;100.0
64862;BME280;62652;42.274;-71.436;2024-03-17T01:40:01;100000.0;;;8.777777777777777;100.0
64862;BME280;62652;42.274;-71.436;2024-03-17T01:41:00;100000.0;;;8.88888888888889;100.0
64862;BME280;62652;42.274;-71.436;2024-03-17T01:42:00;99990.0;;;8.777777777777777;100.0
64862;BME280;62652;42.274;-71.436;2024-03-17T01:43:00;99990.0;;;8.777777777777777;100.0
64862;BME280;62652;42.274;-71.436;2024-03-17T01:44:00;100000.0;;;8.777777777777777;100.0
64862;BME280;62652;42.274;-71.436;2024-03-17T01:45:01;100000.0;;;8.777777777777777;100.0
64862;BME280;62652;42.274;-71.436;2024-03-17T01:46:02;99990.0;;;8.722222222222223;100.0
64862;BME280;62652;42.274;-71.436;2024-03-17T01:47:00;99990.0;;;8.777777777777777;100.0
64862;BME280;62652;42.274;-71.436;2024-03-17T01:48:02;99990.0;;;8.722222222222223;100.0
64862;BME280;62652;42.274;-71.436;2024-03-17T01:49:00;99990.0;;;8.61111111111111;100.0
64862;BME280;62652;42.274;-71.436;2024-03-17T01:50:00;99990.0;;;8.722222222222223;100.0
64862;BME280;62652;42.274;-71.436;2024-03-17T01:51:01;99990.0;;;8.722222222222223;100.0
64862;BME280;62652;42.274;-71.436;2024-03-17T01:52:00;99990.0;;;8.722222222222223;100.0
64862;BME280;62652;42.274;-71.436;2024-03-17T01:53:03;99980.0;;;8.722222222222223;100.0
64862;BME280;62652;42.274;-71.436;2024-03-17T01:54:00;99980.0;;;8.722222222222223;100.0
64862;BME280;62652;42.274;-71.436;2024-03-17T01:55:01;99970.0;;;8.61111111111111;100.0
64862;BME280;62652;42.274;-71.436;2024-03-17T01:56:00;99970.0;;;8.61111111111111;100.0
64862;BME280;62652;42.274;-71.436;2024-03-17T01:57:00;99970.0;;;8.61111111111111;100.0
64862;BME280;62652;42.274;-71.436;2024-03-17T01:58:02;99970.0;;;8.499999999999998;100.0
64862;BME280;62652;42.274;-71.436;2024-03-17T01:59:01;99970.0;;;8.61111111111111;100.0
64862;BME280;62652;42.274;-71.436;2024-03-17T02:00:00;99970.0;;;8.499999999999998;100.0
64862;BME280;62652;42.274;-71.436;2024-03-17T02:01:01;99970.0;;;8.499999999999998;100.0
64862;BME280;62652;42.274;-71.436;2024-03-17T02:02:00;99970.0;;;8.38888888888889;100.0
64862;BME280;62652;42.274;-71.436;2024-03-17T02:03:00;99980.0;;;8.38888888888889;100.0
64862;BME280;62652;42.274;-71.436;2024-03-17T02:04:01;99970.0;;;8.38888888888889;100.0
64862;BME280;62652;42.274;-71.436;2024-03-17T02:05:01;99970.0;;;8.38888888888889;100.0
64862;BME280;62652;42.274;-71.436;2024-03-17T02:06:00;99970.0;;;8.38888888888889;100.0
64862;BME280;62652;42.274;-71.436;2024-03-17T02:07:00;99970.0;;;8.38888888888889;100.0
64862;BME280;62652;42.274;-71.436;2024-03-17T02:08:00;99970.0;;;8.38888888888889;100.0
64862;BME280;62652;42.274;-71.436;2024-03-17T02:09:00;99970.0;;;8.277777777777779;100.0
64862;BME280;62652;42.274;-71.436;2024-03-17T02:10:01;99970.0;;;8.277777777777779;100.0
64862;BME280;62652;42.274;-71.436;2024-03-17T02:11:00;99970.0;;;8.277777777777779;100.0
64862;BME280;62652;42.274;-71.436;2024-03-17T02:12:00;99960.0;;;8.277777777777779;100.0
64862;BME280;62652;42.274;-71.436;2024-03-17T02:13:01;99960.0;;;8.277777777777779;100.0
64862;BME280;62652;42.274;-71.436;2024-03-17T02:14:01;99960.0;;;8.222222222222221;100.0
64862;BME280;62652;42.274;-71.436;2024-03-17T02:15:01;99960.0;;;8.222222222222221;100.0
64862;BME280;62652;42.274;-71.436;2024-03-17T02:16:00;99960.0;;;8.222222222222221;100.0
64862;BME280;62652;42.274;-71.436;2024-03-17T02:17:00;99960.0;;;8.222222222222221;100.0
64862;BME280;62652;42.274;-71.436;2024-03-17T02:18:00;99960.0;;;8.277777777777779;100.0
64862;BME280;62652;42.274;-71.436;2024-03-17T02:19:00;99970.0;;;8.277777777777779;100.0
64862;BME280;62652;42.274;-71.436;2024-03-17T02:20:00;99970.0;;;8.222222222222221;100.0
64862;BME280;62652;42.274;-71.436;2024-03-17T02:21:00;99960.0;;;8.222222222222221;100.0
64862;BME280;62652;42.274;-71.436;2024-03-17T02:22:00;99960.0;;;8.11111111111111;100.0
64862;BME280;62652;42.274;-71.436;2024-03-17T02:23:00;99960.0;;;8.11111111111111;100.0
64862;BME280;62652;42.274;-71.436;2024-03-17T02:24:00;99960.0;;;8.11111111111111;100.0
64862;BME280;62652;42.274;-71.436;2024-03-17T02:25:00;99960.0;;;8.11111111111111;100.0
64862;BME280;62652;42.274;-71.436;2024-03-17T02:26:00;99960.0;;;8.11111111111111;100.0
64862;BME280;62652;42.274;-71.436;2024-03-17T02:27:00;99960.0;;;8.0;100.0
64862;BME280;62652;42.274;-71.436;2024-03-17T02:28:01;99960.0;;;8.11111111111111;100.0
64862;BME280;62652;42.274;-71.436;2024-03-17T02:29:00;99960.0;;;8.0;100.0
64862;BME280;62652;42.274;-71.436;2024-03-17T02:30:01;99960.0;;;7.88888888888889;100.0
64862;BME280;62652;42.274;-71.436;2024-03-17T02:31:00;99960.0;;;8.0;100.0
64862;BME280;62652;42.274;-71.436;2024-03-17T02:32:00;99960.0;;;7.88888888888889;100.0
64862;BME280;62652;42.274;-71.436;2024-03-17T02:33:00;99960.0;;;7.88888888888889;100.0
64862;BME280;62652;42.274;-71.436;2024-03-17T02:34:00;99960.0;;;8.0;100.0
64862;BME280;62652;42.274;-71.436;2024-03-17T02:35:00;99960.0;;;8.0;100.0
64862;BME280;62652;42.274;-71.436;2024-03-17T02:36:00;99960.0;;;7.88888888888889;100.0
64862;BME280;62652;42.274;-71.436;2024-03-17T02:37:01;99950.0;;;7.88888888888889;100.0
64862;BME280;62652;42.274;-71.436;2024-03-17T02:38:00;99950.0;;;7.88888888888889;100.0
64862;BME280;62652;42.274;-71.436;2024-03-17T02:39:00;99960.0;;;7.88888888888889;100.0
64862;BME280;62652;42.274;-71.436;2024-03-17T02:40:00;99960.0;;;7.88888888888889;100.0
64862;BME280;62652;42.274;-71.436;2024-03-17T02:41:00;99960.0;;;7.777777777777778;100.0
64862;BME280;62652;42.274;-71.436;2024-03-17T02:42:02;99960.0;;;7.777777777777778;100.0
64862;BME280;62652;42.274;-71.436;2024-03-17T02:43:01;99960.0;;;7.777777777777778;100.0
64862;BME280;62652;42.274;-71.436;2024-03-17T02:44:00;99960.0;;;7.777777777777778;100.0
64862;BME280;62652;42.274;-71.436;2024-03-17T02:45:00;99960.0;;;7.777777777777778;100.0
64862;BME280;62652;42.274;-71.436;2024-03-17T02:46:00;99950.0;;;7.722222222222222;100.0
64862;BME280;62652;42.274;-71.436;2024-03-17T02:47:02;99950.0;;;7.722222222222222;100.0
64862;BME280;62652;42.274;-71.436;2024-03-17T02:48:00;99960.0;;;7.722222222222222;100.0
64862;BME280;62652;42.274;-71.436;2024-03-17T02:49:00;99960.0;;;7.722222222222222;100.0
64862;BME280;62652;42.274;-71.436;2024-03-17T02:50:00;99960.0;;;7.722222222222222;100.0
64862;BME280;62652;42.274;-71.436;2024-03-17T02:51:00;99950.0;;;7.6111111111111125;100.0
64862;BME280;62652;42.274;-71.436;2024-03-17T02:52:00;99950.0;;;7.6111111111111125;100.0
64862;BME280;62652;42.274;-71.436;2024-03-17T02:53:00;99950.0;;;7.6111111111111125;100.0
64862;BME280;62652;42.274;-71.436;2024-03-17T02:54:01;99950.0;;;7.5;100.0
64862;BME280;62652;42.274;-71.436;2024-03-17T02:55:00;99950.0;;;7.6111111111111125;100.0
64862;BME280;62652;42.274;-71.436;2024-03-17T02:56:00;99960.0;;;7.6111111111111125;100.0
64862;BME280;62652;42.274;-71.436;2024-03-17T02:57:01;99960.0;;;7.6111111111111125;100.0
64862;BME280;62652;42.274;-71.436;2024-03-17T02:58:00;99960.0;;;7.5;100.0
64862;BME280;62652;42.274;-71.436;2024-03-17T02:59:00;99960.0;;;7.6111111111111125;100.0
64862;BME280;62652;42.274;-71.436;2024-03-17T03:00:01;99960.0;;;7.5;100.0
64862;BME280;62652;42.274;-71.436;2024-03-17T03:01:00;99960.0;;;7.5;100.0
64862;BME280;62652;42.274;-71.436;2024-03-17T03:02:01;99960.0;;;7.5;100.0
64862;BME280;62652;42.274;-71.436;2024-03-17T03:03:00;99950.0;;;7.5;100.0
64862;BME280;62652;42.274;-71.436;2024-03-17T03:04:00;99950.0;;;7.5;100.0
64862;BME280;62652;42.274;-71.436;2024-03-17T03:05:00;99960.0;;;7.5;100.0
64862;BME280;62652;42.274;-71.436;2024-03-17T03:06:00;99950.0;;;7.3888888888888875;100.0
64862;BME280;62652;42.274;-71.436;2024-03-17T03:07:00;99950.0;;;7.5;100.0
64862;BME280;62652;42.274;-71.436;2024-03-17T03:08:00;99950.0;;;7.5;100.0
64862;BME280;62652;42.274;-71.436;2024-03-17T03:09:00;99950.0;;;7.5;100.0
64862;BME280;62652;42.274;-71.436;2024-03-17T03:10:00;99950.0;;;7.277777777777778;100.0
64862;BME280;62652;42.274;-71.436;2024-03-17T03:11:00;99940.0;;;7.277777777777778;100.0
64862;BME280;62652;42.274;-71.436;2024-03-17T03:12:01;99940.0;;;7.277777777777778;100.0
64862;BME280;62652;42.274;-71.436;2024-03-17T03:13:00;99930.0;;;7.277777777777778;100.0
64862;BME280;62652;42.274;-71.436;2024-03-17T03:14:00;99940.0;;;7.277777777777778;100.0
64862;BME280;62652;42.274;-71.436;2024-03-17T03:15:00;99930.0;;;7.277777777777778;100.0
64862;BME280;62652;42.274;-71.436;2024-03-17T03:16:00;99930.0;;;7.277777777777778;100.0
64862;BME280;62652;42.274;-71.436;2024-03-17T03:17:00;99930.0;;;7.277777777777778;100.0
64862;BME280;62652;42.274;-71.436;2024-03-17T03:18:00;99930.0;;;7.277777777777778;100.0
64862;BME280;62652;42.274;-71.436;2024-03-17T03:19:00;99930.0;;;7.277777777777778;100.0
64862;BME280;62652;42.274;-71.436;2024-03-17T03:20:00;99920.0;;;7.277777777777778;100.0
64862;BME280;62652;42.274;-71.436;2024-03-17T03:21:00;99920.0;;;7.277777777777778;100.0
64862;BME280;62652;42.274;-71.436;2024-03-17T03:22:00;99920.0;;;7.277777777777778;100.0
64862;BME280;62652;42.274;-71.436;2024-03-17T03:23:00;99920.0;;;7.277777777777778;100.0
64862;BME280;62652;42.274;-71.436;2024-03-17T03:24:00;99920.0;;;7.222222222222222;100.0
64862;BME280;62652;42.274;-71.436;2024-03-17T03:25:00;99920.0;;;7.277777777777778;100.0
64862;BME280;62652;42.274;-71.436;2024-03-17T03:26:02;99920.0;;;7.222222222222222;100.0
64862;BME280;62652;42.274;-71.436;2024-03-17T03:27:00;99910.0;;;7.277777777777778;100.0
64862;BME280;62652;42.274;-71.436;2024-03-17T03:28:00;99910.0;;;7.277777777777778;100.0
64862;BME280;62652;42.274;-71.436;2024-03-17T03:29:00;99910.0;;;7.222222222222222;100.0
64862;BME280;62652;42.274;-71.436;2024-03-17T03:30:00;99910.0;;;7.222222222222222;100.0
64862;BME280;62652;42.274;-71.436;2024-03-17T03:31:00;99910.0;;;7.222222222222222;100.0
64862;BME280;62652;42.274;-71.436;2024-03-17T03:32:00;99900.0;;;7.11111111111111;100.0
64862;BME280;62652;42.274;-71.436;2024-03-17T03:33:00;99910.0;;;7.11111111111111;100.0
64862;BME280;62652;42.274;-71.436;2024-03-17T03:34:00;99900.0;;;7.11111111111111;100.0
64862;BME280;62652;42.274;-71.436;2024-03-17T03:35:00;99910.0;;;7.11111111111111;100.0
64862;BME280;62652;42.274;-71.436;2024-03-17T03:36:06;99900.0;;;7.11111111111111;100.0
64862;BME280;62652;42.274;-71.436;2024-03-17T03:37:00;99900.0;;;7.11111111111111;100.0
64862;BME280;62652;42.274;-71.436;2024-03-17T03:38:00;99900.0;;;7.11111111111111;100.0
64862;BME280;62652;42.274;-71.436;2024-03-17T03:39:00;99900.0;;;7.11111111111111;100.0
64862;BME280;62652;42.274;-71.436;2024-03-17T03:40:00;99900.0;;;7.11111111111111;100.0
64862;BME280;62652;42.274;-71.436;2024-03-17T03:41:05;99900.0;;;7.11111111111111;100.0
64862;BME280;62652;42.274;-71.436;2024-03-17T03:42:00;99910.0;;;7.11111111111111;100.0
64862;BME280;62652;42.274;-71.436;2024-03-17T03:43:00;99910.0;;;7.11111111111111;100.0
64862;BME280;62652;42.274;-71.436;2024-03-17T03:44:00;99910.0;;;7.000000000000001;100.0
64862;BME280;62652;42.274;-71.436;2024-03-17T03:45:00;99910.0;;;7.000000000000001;100.0
64862;BME280;62652;42.274;-71.436;2024-03-17T03:46:01;99900.0;;;7.000000000000001;100.0
64862;BME280;62652;42.274;-71.436;2024-03-17T03:47:00;99900.0;;;6.888888888888888;100.0
64862;BME280;62652;42.274;-71.436;2024-03-17T03:48:00;99900.0;;;7.000000000000001;100.0
64862;BME280;62652;42.274;-71.436;2024-03-17T03:49:00;99900.0;;;6.888888888888888;100.0
64862;BME280;62652;42.274;-71.436;2024-03-17T03:50:00;99890.0;;;7.000000000000001;100.0
64862;BME280;62652;42.274;-71.436;2024-03-17T03:51:03;99900.0;;;7.000000000000001;100.0
64862;BME280;62652;42.274;-71.436;2024-03-17T03:52:00;99890.0;;;6.888888888888888;100.0
64862;BME280;62652;42.274;-71.436;2024-03-17T03:53:00;99890.0;;;6.888888888888888;100.0
64862;BME280;62652;42.274;-71.436;2024-03-17T03:54:00;99900.0;;;6.888888888888888;100.0
64862;BME280;62652;42.274;-71.436;2024-03-17T03:55:00;99900.0;;;7.000000000000001;100.0
64862;BME280;62652;42.274;-71.436;2024-03-17T03:56:03;99890.0;;;6.888888888888888;100.0
64862;BME280;62652;42.274;-71.436;2024-03-17T03:57:00;99900.0;;;7.000000000000001;100.0
64862;BME280;62652;42.274;-71.436;2024-03-17T03:58:00;99900.0;;;6.888888888888888;100.0
64862;BME280;62652;42.274;-71.436;2024-03-17T03:59:00;99900.0;;;7.000000000000001;100.0
64862;BME280;62652;42.274;-71.436;2024-03-17T04:00:01;99900.0;;;7.11111111111111;100.0
64862;BME280;62652;42.274;-71.436;2024-03-17T04:01:03;99890.0;;;7.000000000000001;100.0
64862;BME280;62652;42.274;-71.436;2024-03-17T04:02:00;99890.0;;;7.000000000000001;100.0
64862;BME280;62652;42.274;-71.436;2024-03-17T04:03:00;99890.0;;;7.000000000000001;100.0
64862;BME280;62652;42.274;-71.436;2024-03-17T04:04:00;99890.0;;;7.000000000000001;100.0
64862;BME280;62652;42.274;-71.436;2024-03-17T04:05:00;99900.0;;;7.000000000000001;100.0
64862;BME280;62652;42.274;-71.436;2024-03-17T04:06:01;99890.0;;;7.11111111111111;100.0
64862;BME280;62652;42.274;-71.436;2024-03-17T04:07:00;99890.0;;;7.000000000000001;100.0
64862;BME280;62652;42.274;-71.436;2024-03-17T04:08:00;99890.0;;;7.000000000000001;100.0
64862;BME280;62652;42.274;-71.436;2024-03-17T04:09:00;99890.0;;;7.11111111111111;100.0
64862;BME280;62652;42.274;-71.436;2024-03-17T04:10:00;99890.0;;;7.11111111111111;100.0
64862;BME280;62652;42.274;-71.436;2024-03-17T04:11:01;99880.0;;;7.000000000000001;100.0
64862;BME280;62652;42.274;-71.436;2024-03-17T04:12:00;99880.0;;;7.000000000000001;100.0
64862;BME280;62652;42.274;-71.436;2024-03-17T04:13:00;99880.0;;;7.000000000000001;100.0
64862;BME280;62652;42.274;-71.436;2024-03-17T04:14:00;99880.0;;;7.000000000000001;100.0
64862;BME280;62652;42.274;-71.436;2024-03-17T04:15:01;99880.0;;;7.000000000000001;100.0
64862;BME280;62652;42.274;-71.436;2024-03-17T04:16:03;99880.0;;;7.000000000000001;100.0
64862;BME280;62652;42.274;-71.436;2024-03-17T04:17:00;99880.0;;;7.000000000000001;100.0
64862;BME280;62652;42.274;-71.436;2024-03-17T04:18:00;99880.0;;;6.888888888888888;100.0
64862;BME280;62652;42.274;-71.436;2024-03-17T04:19:00;99880.0;;;6.888888888888888;100.0
64862;BME280;62652;42.274;-71.436;2024-03-17T04:20:00;99880.0;;;7.000000000000001;100.0
64862;BME280;62652;42.274;-71.436;2024-03-17T04:21:02;99880.0;;;6.888888888888888;100.0
64862;BME280;62652;42.274;-71.436;2024-03-17T04:22:01;99870.0;;;7.000000000000001;100.0
64862;BME280;62652;42.274;-71.436;2024-03-17T04:23:00;99870.0;;;6.888888888888888;100.0
64862;BME280;62652;42.274;-71.436;2024-03-17T04:24:00;99870.0;;;7.000000000000001;100.0
64862;BME280;62652;42.274;-71.436;2024-03-17T04:25:00;99860.0;;;6.888888888888888;100.0
64862;BME280;62652;42.274;-71.436;2024-03-17T04:26:01;99860.0;;;6.888888888888888;100.0
64862;BME280;62652;42.274;-71.436;2024-03-17T04:27:00;99860.0;;;7.000000000000001;100.0
64862;BME280;62652;42.274;-71.436;2024-03-17T04:28:00;99870.0;;;7.000000000000001;100.0
64862;BME280;62652;42.274;-71.436;2024-03-17T04:29:00;99870.0;;;7.11111111111111;100.0
64862;BME280;62652;42.274;-71.436;2024-03-17T04:30:00;99870.0;;;7.000000000000001;100.0
64862;BME280;62652;42.274;-71.436;2024-03-17T04:31:03;99860.0;;;7.11111111111111;100.0
64862;BME280;62652;42.274;-71.436;2024-03-17T04:32:00;99860.0;;;7.000000000000001;100.0
64862;BME280;62652;42.274;-71.436;2024-03-17T04:33:01;99860.0;;;7.000000000000001;100.0
64862;BME280;62652;42.274;-71.436;2024-03-17T04:34:00;99850.0;;;6.888888888888888;100.0